Time;durP1;ratioP1;P1;durP2;ratioP2;P2;SDS_P1;SDS_P2;PMS_P1;PMS_P2;Temp;Humidity;BMP_temperature;BMP_pressure;BME280_temperature;BME280_humidity;BME280_pressure;Samples;Min_cycle;Max_cycle;Signal;HPM_P1;HPM_P2
2021/04/22 00:01:21;;;;;;;23.63;3.83;;;3.10;99.90;;;;;;5095218;28;20028;-63
2021/04/22 00:03:47;;;;;;;17.02;3.60;;;3.10;99.90;;;;;;5094901;28;20136;-63
2021/04/22 00:06:13;;;;;;;12.88;3.83;;;3.00;99.90;;;;;;5094580;28;20035;-63
2021/04/22 00:08:38;;;;;;;19.23;4.25;;;3.00;99.90;;;;;;5094452;28;20097;-63
2021/04/22 00:11:04;;;;;;;20.42;4.00;;;2.90;99.90;;;;;;5093871;28;20419;-63
2021/04/22 00:13:30;;;;;;;27.73;4.55;;;2.90;99.90;;;;;;5095001;28;20055;-63
2021/04/22 00:15:57;;;;;;;18.58;3.72;;;2.80;99.90;;;;;;5093144;28;20020;-63
2021/04/22 00:18:22;;;;;;;27.98;5.20;;;2.80;99.90;;;;;;5094614;28;20020;-63
2021/04/22 00:20:48;;;;;;;17.58;3.42;;;2.70;99.90;;;;;;5094778;28;20381;-63
2021/04/22 00:23:15;;;;;;;15.27;3.75;;;2.70;99.90;;;;;;5093641;28;20031;-63
2021/04/22 00:25:41;;;;;;;27.38;4.28;;;2.70;99.90;;;;;;5094761;28;20022;-63
2021/04/22 00:28:08;;;;;;;21.95;4.75;;;2.60;99.90;;;;;;5094662;28;20103;-63
2021/04/22 00:30:34;;;;;;;28.45;4.65;;;2.60;99.90;;;;;;5094743;28;20020;-63
2021/04/22 00:33:01;;;;;;;19.50;4.18;;;2.60;99.90;;;;;;5094391;28;20407;-63
2021/04/22 00:35:27;;;;;;;15.85;3.40;;;2.60;99.90;;;;;;5094648;28;20074;-63
2021/04/22 00:37:52;;;;;;;21.42;5.03;;;2.60;99.90;;;;;;5094630;28;20032;-63
2021/04/22 00:40:21;;;;;;;19.02;4.20;;;2.60;99.90;;;;;;5094299;28;20439;-63
2021/04/22 00:42:47;;;;;;;18.00;4.82;;;2.50;99.90;;;;;;5094515;28;20076;-62
2021/04/22 00:45:13;;;;;;;24.70;4.25;;;2.50;99.90;;;;;;5094495;28;20028;-63
2021/04/22 00:47:39;;;;;;;17.58;4.30;;;2.40;99.90;;;;;;5092933;28;20020;-63
2021/04/22 00:50:08;;;;;;;25.90;4.70;;;2.40;99.90;;;;;;5094390;28;20024;-63
2021/04/22 00:52:34;;;;;;;19.90;5.40;;;2.40;99.90;;;;;;5094372;28;20055;-63
2021/04/22 00:54:59;;;;;;;13.48;3.67;;;2.40;99.90;;;;;;5094079;28;20519;-63
2021/04/22 00:57:25;;;;;;;22.02;4.88;;;2.30;99.90;;;;;;5094039;28;20069;-63
2021/04/22 00:59:50;;;;;;;23.42;5.05;;;2.30;99.90;;;;;;5093754;28;20106;-63
2021/04/22 01:02:16;;;;;;;25.10;4.63;;;2.30;99.90;;;;;;5093091;28;20024;-63
2021/04/22 01:04:46;;;;;;;28.90;5.82;;;2.30;99.90;;;;;;5094052;28;20027;-63
2021/04/22 01:07:13;;;;;;;24.83;5.15;;;2.30;99.90;;;;;;5092509;28;20044;-63
2021/04/22 01:09:38;;;;;;;18.40;4.68;;;2.20;99.90;;;;;;5092361;28;20020;-63
2021/04/22 01:12:05;;;;;;;23.27;4.70;;;2.20;99.90;;;;;;5094157;28;20027;-63
2021/04/22 01:14:31;;;;;;;17.95;5.30;;;2.20;99.90;;;;;;5075449;28;20027;-63
2021/04/22 01:16:56;;;;;;;25.23;4.82;;;2.10;99.90;;;;;;5093531;28;20020;-63
2021/04/22 01:19:22;;;;;;;25.92;5.28;;;2.10;99.90;;;;;;5094118;28;20024;-63
2021/04/22 01:21:47;;;;;;;29.63;5.47;;;2.10;99.90;;;;;;5075458;28;20392;-63
2021/04/22 01:24:13;;;;;;;23.10;5.15;;;2.00;99.90;;;;;;5093501;28;20121;-63
2021/04/22 01:26:39;;;;;;;23.67;5.53;;;2.00;99.90;;;;;;5094027;28;20077;-63
2021/04/22 01:29:05;;;;;;;24.85;4.38;;;1.90;99.90;;;;;;5092127;28;20145;-63
2021/04/22 01:31:31;;;;;;;24.83;5.18;;;1.90;99.90;;;;;;5092827;28;20012;-63
2021/04/22 01:34:03;;;;;;;29.58;6.80;;;1.90;99.90;;;;;;5093654;28;20027;-63
2021/04/22 01:36:34;;;;;;;25.23;6.03;;;2.00;99.90;;;;;;5093941;28;20024;-63
2021/04/22 01:39:00;;;;;;;29.40;5.25;;;2.00;99.90;;;;;;5093596;28;20081;-63
2021/04/22 01:41:28;;;;;;;25.35;5.35;;;2.00;99.90;;;;;;5093884;28;20077;-65
2021/04/22 01:43:53;;;;;;;25.95;5.88;;;2.10;99.90;;;;;;5093857;28;20024;-63
2021/04/22 01:46:19;;;;;;;35.90;6.00;;;2.20;99.90;;;;;;5093605;28;20489;-63
2021/04/22 01:48:44;;;;;;;20.92;5.45;;;2.20;99.90;;;;;;5093477;28;20028;-63
2021/04/22 01:51:10;;;;;;;38.00;6.13;;;2.30;99.90;;;;;;5091986;28;20409;-63
2021/04/22 01:53:35;;;;;;;24.35;5.40;;;2.40;99.90;;;;;;5093477;28;20024;-63
2021/04/22 01:56:01;;;;;;;26.75;6.18;;;2.40;99.90;;;;;;5092290;28;20393;-63
2021/04/22 01:58:27;;;;;;;22.95;5.03;;;2.40;99.90;;;;;;5091895;28;20119;-63
2021/04/22 02:00:56;;;;;;;27.38;5.65;;;2.30;99.90;;;;;;5093675;28;20020;-62
2021/04/22 02:03:23;;;;;;;17.23;5.40;;;2.30;99.90;;;;;;5093438;28;20028;-63
2021/04/22 02:05:49;;;;;;;26.70;5.43;;;2.40;99.90;;;;;;5092510;28;20047;-63
2021/04/22 02:08:15;;;;;;;27.05;5.65;;;2.40;99.90;;;;;;5093094;28;20505;-63
2021/04/22 02:10:42;;;;;;;23.25;6.35;;;2.40;99.90;;;;;;5093341;28;20012;-63
2021/04/22 02:13:10;;;;;;;16.40;5.20;;;2.40;99.90;;;;;;5093602;28;20020;-63
2021/04/22 02:15:37;;;;;;;22.35;5.15;;;2.30;99.90;;;;;;5094471;28;20066;-63
2021/04/22 02:18:03;;;;;;;20.58;5.05;;;2.30;99.90;;;;;;5097247;28;20373;-63
2021/04/22 02:20:29;;;;;;;25.83;4.88;;;2.20;99.90;;;;;;5096930;28;20055;-62
2021/04/22 02:22:55;;;;;;;23.92;5.20;;;2.20;99.90;;;;;;5096895;28;20020;-63
2021/04/22 02:25:24;;;;;;;25.13;5.40;;;2.10;99.90;;;;;;5096570;28;20024;-67
2021/04/22 02:27:51;;;;;;;20.08;5.22;;;2.10;99.90;;;;;;5096474;28;20024;-63
2021/04/22 02:30:20;;;;;;;31.33;6.30;;;2.10;99.90;;;;;;5097023;28;20020;-63
2021/04/22 02:32:48;;;;;;;22.50;5.15;;;2.10;99.90;;;;;;5096964;28;20024;-63
2021/04/22 02:35:15;;;;;;;20.00;5.00;;;2.00;99.90;;;;;;5096415;28;20016;-63
2021/04/22 02:37:41;;;;;;;21.02;5.28;;;2.00;99.90;;;;;;5096618;28;20070;-63
2021/04/22 02:40:09;;;;;;;29.13;5.78;;;1.90;99.90;;;;;;5096878;28;20472;-63
2021/04/22 02:42:35;;;;;;;23.88;5.97;;;2.00;99.90;;;;;;5096478;28;20096;-63
2021/04/22 02:45:01;;;;;;;18.08;5.63;;;2.00;99.90;;;;;;5096786;28;20046;-63
2021/04/22 02:47:26;;;;;;;28.25;6.75;;;2.00;99.90;;;;;;5096076;28;20028;-62
2021/04/22 02:49:52;;;;;;;27.10;6.80;;;2.10;99.90;;;;;;5096345;28;20031;-63
2021/04/22 02:52:17;;;;;;;36.97;8.07;;;2.30;99.90;;;;;;5096588;28;20050;-63
2021/04/22 02:54:43;;;;;;;21.85;5.85;;;2.30;99.90;;;;;;5095401;28;20051;-63
2021/04/22 02:57:10;;;;;;;23.95;5.25;;;2.40;99.90;;;;;;5096219;28;20051;-63
2021/04/22 02:59:35;;;;;;;28.90;6.00;;;2.50;99.90;;;;;;5096436;28;20051;-63
2021/04/22 03:02:01;;;;;;;24.52;6.22;;;2.60;99.90;;;;;;5094606;28;20027;-63
2021/04/22 03:04:27;;;;;;;35.10;6.72;;;2.60;99.90;;;;;;5096318;28;20024;-63
2021/04/22 03:06:52;;;;;;;26.10;7.13;;;2.60;99.90;;;;;;5094506;28;20073;-63
2021/04/22 03:09:18;;;;;;;25.63;6.10;;;2.70;99.90;;;;;;5094364;28;20064;-63
2021/04/22 03:11:43;;;;;;;33.95;6.38;;;2.70;99.90;;;;;;5096229;28;20062;-63
2021/04/22 03:14:09;;;;;;;23.45;6.35;;;2.70;99.90;;;;;;5095867;28;20354;-63
2021/04/22 03:16:34;;;;;;;30.33;6.38;;;2.70;99.90;;;;;;5094289;28;20020;-63
2021/04/22 03:19:00;;;;;;;27.75;6.10;;;2.70;99.90;;;;;;5096115;28;20039;-63
2021/04/22 03:21:26;;;;;;;24.55;6.10;;;2.60;99.90;;;;;;5095445;28;20039;-63
2021/04/22 03:23:51;;;;;;;27.08;6.38;;;2.60;99.90;;;;;;5095964;28;20028;-63
2021/04/22 03:26:17;;;;;;;25.88;6.10;;;2.60;99.90;;;;;;5095628;28;20389;-63
2021/04/22 03:28:42;;;;;;;34.88;6.68;;;2.60;99.90;;;;;;5095515;28;20354;-63
2021/04/22 03:31:08;;;;;;;22.40;5.85;;;2.60;99.90;;;;;;5094025;28;20020;-63
2021/04/22 03:33:33;;;;;;;20.33;6.20;;;2.50;99.90;;;;;;5095533;28;20381;-63
2021/04/22 03:35:59;;;;;;;26.55;6.88;;;2.50;99.90;;;;;;5095414;28;20377;-69
2021/04/22 03:38:24;;;;;;;28.25;5.95;;;2.50;99.90;;;;;;5095657;28;20028;-63
2021/04/22 03:40:50;;;;;;;34.88;7.15;;;2.50;99.90;;;;;;5094140;28;20380;-63
2021/04/22 03:43:16;;;;;;;21.50;6.70;;;2.60;99.90;;;;;;5095391;28;20170;-63
2021/04/22 03:45:41;;;;;;;27.15;6.90;;;2.70;99.90;;;;;;5094077;28;20039;-63
2021/04/22 03:48:07;;;;;;;23.50;5.97;;;2.60;99.90;;;;;;5095434;28;20489;-63
2021/04/22 03:50:33;;;;;;;27.17;6.80;;;2.70;99.90;;;;;;5095734;28;20457;-63
2021/04/22 03:52:58;;;;;;;32.28;6.75;;;2.70;99.90;;;;;;5094149;28;20054;-63
2021/04/22 03:55:24;;;;;;;27.95;6.65;;;2.80;99.90;;;;;;5093901;28;20106;-63
2021/04/22 03:57:49;;;;;;;28.55;7.05;;;2.90;99.90;;;;;;5095301;28;20051;-63
2021/04/22 04:00:19;;;;;;;39.97;8.07;;;3.00;99.90;;;;;;5094683;28;20536;-63
2021/04/22 04:02:45;;;;;;;26.33;7.28;;;2.90;99.90;;;;;;5095177;28;20131;-63
2021/04/22 04:05:11;;;;;;;26.58;7.90;;;3.00;99.90;;;;;;5095163;28;20016;-63
2021/04/22 04:07:37;;;;;;;32.38;7.75;;;3.10;99.90;;;;;;5094719;28;20051;-63
2021/04/22 04:10:05;;;;;;;16.95;6.78;;;3.10;99.90;;;;;;5095085;28;20016;-63
2021/04/22 04:12:31;;;;;;;29.38;7.55;;;3.10;99.90;;;;;;5095026;28;20521;-63
2021/04/22 04:14:56;;;;;;;23.08;7.30;;;3.10;99.90;;;;;;5093185;28;20023;-63
2021/04/22 04:17:23;;;;;;;30.58;8.02;;;3.10;99.90;;;;;;5095009;28;20031;-63
2021/04/22 04:19:48;;;;;;;28.20;7.95;;;3.20;99.90;;;;;;5093463;28;20016;-63
2021/04/22 04:22:14;;;;;;;35.50;8.38;;;3.30;99.90;;;;;;5094880;28;20104;-63
2021/04/22 04:24:39;;;;;;;25.35;7.57;;;3.30;99.90;;;;;;5094846;28;20037;-63
2021/04/22 04:27:05;;;;;;;28.50;8.05;;;3.40;99.90;;;;;;5094800;28;20464;-63
2021/04/22 04:29:31;;;;;;;29.75;7.63;;;3.40;99.90;;;;;;5094688;28;20460;-63
2021/04/22 04:31:56;;;;;;;48.60;8.82;;;3.40;99.90;;;;;;5094697;28;20105;-63
2021/04/22 04:34:22;;;;;;;28.17;7.28;;;3.50;99.90;;;;;;5094667;28;20016;-63
2021/04/22 04:36:47;;;;;;;25.23;7.68;;;3.60;99.90;;;;;;5092864;28;20380;-63
2021/04/22 04:39:15;;;;;;;28.00;7.63;;;3.60;99.90;;;;;;5094164;28;20182;-63
2021/04/22 04:41:42;;;;;;;29.88;7.50;;;3.60;99.90;;;;;;5094562;28;20020;-63
2021/04/22 04:44:08;;;;;;;34.00;7.80;;;3.70;99.90;;;;;;5094221;28;20020;-62
2021/04/22 04:46:34;;;;;;;28.33;8.38;;;3.70;99.90;;;;;;5094480;28;20039;-63
2021/04/22 04:49:00;;;;;;;30.95;8.63;;;3.70;99.90;;;;;;5094095;28;20378;-63
2021/04/22 04:51:26;;;;;;;36.58;9.18;;;3.80;99.90;;;;;;5092957;28;20032;-63
2021/04/22 04:53:51;;;;;;;29.38;9.10;;;3.80;99.90;;;;;;5093836;28;20023;-63
2021/04/22 04:56:18;;;;;;;35.00;8.52;;;3.90;99.90;;;;;;5094309;28;20024;-63
2021/04/22 04:58:45;;;;;;;27.83;7.88;;;4.00;99.90;;;;;;5094283;28;20103;-63
2021/04/22 05:01:11;;;;;;;28.55;7.78;;;4.00;99.90;;;;;;5094253;28;20119;-63
2021/04/22 05:03:37;;;;;;;27.50;7.60;;;4.00;99.90;;;;;;5094263;28;20089;-63
2021/04/22 05:06:04;;;;;;;34.13;7.93;;;4.10;99.90;;;;;;5092685;28;20066;-63
2021/04/22 05:08:29;;;;;;;29.83;8.55;;;4.20;99.90;;;;;;5093608;28;20107;-63
2021/04/22 05:10:55;;;;;;;29.70;6.78;;;4.30;99.90;;;;;;5094146;28;20024;-63
2021/04/22 05:13:20;;;;;;;23.35;6.55;;;4.40;99.90;;;;;;5094164;28;20024;-63
2021/04/22 05:15:46;;;;;;;30.85;8.85;;;4.40;99.90;;;;;;5092965;28;20023;-63
2021/04/22 05:18:11;;;;;;;27.50;6.85;;;4.60;99.90;;;;;;5094101;28;20028;-63
2021/04/22 05:20:37;;;;;;;29.33;7.50;;;4.60;99.90;;;;;;5093825;28;20469;-63
2021/04/22 05:23:03;;;;;;;25.30;7.40;;;4.70;99.90;;;;;;5094062;28;20030;-63
2021/04/22 05:25:28;;;;;;;21.95;6.97;;;4.80;99.90;;;;;;5094032;28;20027;-63
2021/04/22 05:27:54;;;;;;;23.38;6.70;;;4.80;99.90;;;;;;5093555;28;20036;-63
2021/04/22 05:30:20;;;;;;;27.65;7.32;;;4.90;99.90;;;;;;5093714;28;20028;-62
2021/04/22 05:32:45;;;;;;;27.70;7.90;;;5.00;99.90;;;;;;5092135;28;20380;-63
2021/04/22 05:35:12;;;;;;;20.20;6.00;;;5.20;99.90;;;;;;5093672;28;20020;-62
2021/04/22 05:37:38;;;;;;;28.52;6.30;;;5.20;99.90;;;;;;5093381;28;20419;-62
2021/04/22 05:40:05;;;;;;;25.75;7.10;;;5.30;99.90;;;;;;5093839;28;20107;-62
2021/04/22 05:42:30;;;;;;;25.20;7.22;;;5.40;99.90;;;;;;5093835;28;20051;-62
2021/04/22 05:44:56;;;;;;;24.85;8.15;;;5.40;99.90;;;;;;5093847;28;20055;-63
2021/04/22 05:47:21;;;;;;;24.75;7.13;;;5.50;99.90;;;;;;5092284;28;20028;-63
2021/04/22 05:49:47;;;;;;;31.20;7.78;;;5.60;99.90;;;;;;5093985;28;20019;-62
2021/04/22 05:52:12;;;;;;;25.58;6.30;;;5.80;99.90;;;;;;5097747;28;20034;-62
2021/04/22 05:54:38;;;;;;;22.15;6.20;;;6.00;99.90;;;;;;5097587;28;20052;-62
2021/04/22 05:57:04;;;;;;;23.00;6.65;;;6.00;99.90;;;;;;5097586;28;20028;-63
2021/04/22 05:59:29;;;;;;;20.55;7.50;;;6.10;99.90;;;;;;5097298;28;20086;-63
2021/04/22 06:01:55;;;;;;;27.48;5.40;;;6.20;99.90;;;;;;5096021;28;20020;-63
2021/04/22 06:04:21;;;;;;;27.65;6.55;;;6.10;99.90;;;;;;5097187;28;20028;-62
2021/04/22 06:06:46;;;;;;;19.23;5.57;;;6.10;99.90;;;;;;5078822;28;20034;-63
2021/04/22 06:09:12;;;;;;;16.80;5.72;;;6.30;99.90;;;;;;5096398;28;20048;-63
2021/04/22 06:11:37;;;;;;;24.80;5.70;;;6.40;99.90;;;;;;5095387;28;20081;-63
2021/04/22 06:14:03;;;;;;;17.80;5.32;;;6.60;99.90;;;;;;5096670;28;20413;-63
2021/04/22 06:16:29;;;;;;;20.50;5.22;;;6.70;99.90;;;;;;5096808;28;20024;-63
2021/04/22 06:18:54;;;;;;;17.42;5.22;;;6.70;99.90;;;;;;5096440;28;20040;-63
2021/04/22 06:21:20;;;;;;;17.63;5.35;;;6.70;99.90;;;;;;5096641;28;20023;-63
2021/04/22 06:23:46;;;;;;;19.17;5.40;;;6.80;99.90;;;;;;5095271;28;20028;-63
2021/04/22 06:26:11;;;;;;;27.25;6.25;;;6.90;99.90;;;;;;5097054;28;20028;-63
2021/04/22 06:28:37;;;;;;;19.00;5.28;;;7.00;99.90;;;;;;5096581;28;20033;-63
2021/04/22 06:31:02;;;;;;;26.15;6.38;;;7.10;99.90;;;;;;5095438;28;20031;-63
2021/04/22 06:33:28;;;;;;;18.67;5.70;;;7.10;99.90;;;;;;5097259;28;20107;-63
2021/04/22 06:35:53;;;;;;;22.63;5.40;;;7.20;99.90;;;;;;5093743;28;20027;-63
2021/04/22 06:38:19;;;;;;;21.25;5.78;;;7.00;99.90;;;;;;5115593;28;20023;-63
2021/04/22 06:40:44;;;;;;;34.15;6.25;;;7.00;99.90;;;;;;5116435;28;20118;-63
2021/04/22 06:43:13;;;;;;;34.53;6.95;;;6.90;99.90;;;;;;5110451;28;20421;-63
2021/04/22 06:45:45;;;;;;;25.30;5.60;;;6.90;99.90;;;;;;5116854;28;20042;-63
2021/04/22 06:48:14;;;;;;;24.77;5.85;;;7.00;99.90;;;;;;5103282;28;20502;-63
2021/04/22 06:50:40;;;;;;;27.73;5.93;;;7.20;99.90;;;;;;5095622;28;20028;-63
2021/04/22 06:53:06;;;;;;;18.75;5.22;;;7.40;99.90;;;;;;5078797;28;20056;-63
2021/04/22 06:55:32;;;;;;;23.27;5.15;;;7.40;99.90;;;;;;5095882;28;20099;-63
2021/04/22 06:58:00;;;;;;;22.00;5.78;;;7.50;99.90;;;;;;5096013;28;20063;-63
2021/04/22 07:00:28;;;;;;;25.48;6.07;;;7.50;99.90;;;;;;5094519;28;20035;-63
2021/04/22 07:02:54;;;;;;;19.20;5.28;;;7.70;99.90;;;;;;5096112;28;20028;-63
2021/04/22 07:05:20;;;;;;;17.50;5.35;;;7.90;99.90;;;;;;5096325;28;20426;-63
2021/04/22 07:07:46;;;;;;;20.13;6.20;;;8.30;99.90;;;;;;5093808;28;20161;-63
2021/04/22 07:10:13;;;;;;;29.38;5.68;;;8.10;99.90;;;;;;5095280;28;20034;-63
2021/04/22 07:12:38;;;;;;;25.10;5.90;;;8.00;99.90;;;;;;5095490;28;20024;-63
2021/04/22 07:15:06;;;;;;;21.45;5.95;;;8.10;99.90;;;;;;5094933;28;20024;-63
2021/04/22 07:17:31;;;;;;;23.02;4.95;;;8.10;99.90;;;;;;5096108;28;20105;-63
2021/04/22 07:19:57;;;;;;;20.48;6.13;;;8.00;99.90;;;;;;5077400;28;20422;-63
2021/04/22 07:22:24;;;;;;;17.38;4.75;;;8.30;99.90;;;;;;5077294;28;20423;-63
2021/04/22 07:24:50;;;;;;;19.30;4.70;;;8.20;99.90;;;;;;5094089;28;20024;-63
2021/04/22 07:27:15;;;;;;;27.38;6.70;;;8.20;99.90;;;;;;5094072;28;20035;-63
2021/04/22 07:29:45;;;;;;;25.13;5.03;;;8.50;99.90;;;;;;5092821;28;20366;-63
2021/04/22 07:32:11;;;;;;;20.23;5.38;;;8.70;99.90;;;;;;5093463;28;20028;-63
2021/04/22 07:34:37;;;;;;;27.20;6.80;;;8.90;99.90;;;;;;5091230;28;20028;-63
2021/04/22 07:37:03;;;;;;;18.15;5.75;;;8.90;99.90;;;;;;5093537;28;20038;-63
2021/04/22 07:39:29;;;;;;;16.90;4.32;;;9.10;99.90;;;;;;5093049;28;20024;-63
2021/04/22 07:41:54;;;;;;;15.55;4.35;;;9.20;99.90;;;;;;5097320;28;20097;-63
2021/04/22 07:44:20;;;;;;;17.95;4.35;;;9.20;99.90;;;;;;5093650;28;20035;-63
2021/04/22 07:46:46;;;;;;;13.25;4.57;;;9.30;99.90;;;;;;5094753;28;20469;-63
2021/04/22 07:49:12;;;;;;;19.10;4.20;;;9.50;99.90;;;;;;5094494;28;20028;-63
2021/04/22 07:51:38;;;;;;;19.48;4.57;;;9.70;99.90;;;;;;5094572;28;20016;-63
2021/04/22 07:54:04;;;;;;;20.73;4.13;;;9.90;99.90;;;;;;5093850;28;20469;-63
2021/04/22 07:56:29;;;;;;;15.50;4.05;;;10.20;99.90;;;;;;5094434;28;20023;-63
2021/04/22 07:58:55;;;;;;;15.70;3.92;;;10.20;99.90;;;;;;5091925;28;20028;-63
2021/04/22 08:01:21;;;;;;;19.75;4.38;;;10.60;99.90;;;;;;5093371;28;20024;-63
2021/04/22 08:03:46;;;;;;;13.63;3.53;;;11.30;99.90;;;;;;5093233;28;20034;-63
2021/04/22 08:06:13;;;;;;;15.55;4.50;;;11.50;99.90;;;;;;5093629;28;20032;-63
2021/04/22 08:08:38;;;;;;;14.35;3.90;;;11.60;99.90;;;;;;5093139;28;20040;-63
2021/04/22 08:11:05;;;;;;;17.50;5.55;;;11.30;99.90;;;;;;5093457;28;20023;-63
2021/04/22 08:13:31;;;;;;;13.48;3.60;;;10.50;99.90;;;;;;5092943;28;20024;-63
2021/04/22 08:15:57;;;;;;;17.45;5.03;;;10.50;99.90;;;;;;5093895;28;20074;-63
2021/04/22 08:18:25;;;;;;;16.58;4.10;;;10.70;99.90;;;;;;5094304;28;20024;-63
2021/04/22 08:20:52;;;;;;;15.05;4.22;;;10.90;99.90;;;;;;5094820;28;20108;-63
2021/04/22 08:23:18;;;;;;;13.88;4.03;;;10.20;99.90;;;;;;5094155;28;20024;-63
2021/04/22 08:25:48;;;;;;;19.13;5.57;;;10.20;99.90;;;;;;5094645;28;20107;-63
2021/04/22 08:28:17;;;;;;;21.13;5.47;;;10.50;99.90;;;;;;5094396;28;20028;-63
2021/04/22 08:30:48;;;;;;;19.33;4.50;;;10.60;99.90;;;;;;5094646;28;20013;-63
2021/04/22 08:33:16;;;;;;;15.75;4.35;;;10.60;99.90;;;;;;5091822;28;20024;-63
2021/04/22 08:35:42;;;;;;;15.93;4.35;;;10.50;99.90;;;;;;5092710;28;20024;-63
2021/04/22 08:38:08;;;;;;;11.10;4.18;;;11.70;99.90;;;;;;5075905;28;20024;-63
2021/04/22 08:40:34;;;;;;;16.92;4.10;;;12.50;97.30;;;;;;5093175;28;20105;-63
2021/04/22 08:43:00;;;;;;;13.73;3.42;;;12.20;97.00;;;;;;5094253;28;20032;-63
2021/04/22 08:45:26;;;;;;;17.65;3.40;;;11.90;96.30;;;;;;5094518;28;20031;-63
2021/04/22 08:47:53;;;;;;;11.75;4.30;;;11.60;98.40;;;;;;5094344;28;20028;-63
2021/04/22 08:50:23;;;;;;;7.93;3.70;;;11.20;97.80;;;;;;5092902;28;20018;-63
2021/04/22 08:52:51;;;;;;;15.15;3.58;;;11.20;97.60;;;;;;5091224;28;20020;-63
2021/04/22 08:55:19;;;;;;;9.15;3.42;;;12.40;95.50;;;;;;5093381;28;20038;-64
2021/04/22 08:57:46;;;;;;;16.10;3.95;;;12.50;90.30;;;;;;5094007;28;20107;-64
2021/04/22 09:00:15;;;;;;;20.70;3.83;;;12.30;92.20;;;;;;5093897;28;20028;-64
2021/04/22 09:02:41;;;;;;;13.48;3.70;;;13.60;85.30;;;;;;5094159;28;20016;-64
2021/04/22 09:05:07;;;;;;;12.73;3.60;;;13.90;81.50;;;;;;5093721;28;20097;-63
2021/04/22 09:07:32;;;;;;;12.50;4.03;;;12.90;82.30;;;;;;5093299;28;20397;-64
2021/04/22 09:10:00;;;;;;;10.57;3.53;;;13.00;91.80;;;;;;5094068;28;20059;-64
2021/04/22 09:12:26;;;;;;;11.63;3.60;;;13.90;81.30;;;;;;5093821;28;20107;-64
2021/04/22 09:14:55;;;;;;;14.80;4.10;;;14.70;75.70;;;;;;5093527;28;20095;-64
2021/04/22 09:17:22;;;;;;;11.25;3.80;;;15.00;68.10;;;;;;5093262;28;20367;-64
2021/04/22 09:19:47;;;;;;;13.43;3.80;;;14.70;68.80;;;;;;5093989;28;20020;-64
2021/04/22 09:22:13;;;;;;;11.95;3.58;;;14.00;71.00;;;;;;5093700;28;20024;-64
2021/04/22 09:24:39;;;;;;;12.13;4.65;;;12.90;79.80;;;;;;5095662;28;20024;-64
2021/04/22 09:27:10;;;;;;;10.25;3.50;;;13.30;87.80;;;;;;5097608;28;20028;-64
2021/04/22 09:29:40;;;;;;;11.13;3.58;;;14.60;84.00;;;;;;5097492;28;20049;-64
2021/04/22 09:32:09;;;;;;;8.77;3.85;;;15.60;64.80;;;;;;5096390;28;20358;-64
2021/04/22 09:34:34;;;;;;;19.75;4.60;;;15.20;62.60;;;;;;5098031;28;20479;-64
2021/04/22 09:37:00;;;;;;;13.57;4.00;;;15.50;62.20;;;;;;5096876;28;20063;-64
2021/04/22 09:39:28;;;;;;;13.68;4.10;;;16.40;59.10;;;;;;5097917;28;20377;-64
2021/04/22 09:41:58;;;;;;;13.15;4.30;;;16.40;54.00;;;;;;5096615;28;20636;-64
2021/04/22 09:44:26;;;;;;;9.57;3.65;;;14.00;61.00;;;;;;5097095;28;20031;-64
2021/04/22 09:47:11;;;;;;;13.52;3.53;;;14.20;67.70;;;;;;5094448;28;20473;-64
2021/04/22 09:49:58;;;;;;;10.32;3.28;;;13.90;66.00;;;;;;5097179;28;20028;-64
2021/04/22 09:52:29;;;;;;;13.85;3.85;;;12.90;73.90;;;;;;5094046;28;20380;-64
2021/04/22 09:54:55;;;;;;;13.63;4.10;;;12.90;76.60;;;;;;5097088;28;20026;-64
2021/04/22 09:57:25;;;;;;;15.88;4.18;;;12.20;83.40;;;;;;5095675;28;20024;-64
2021/04/22 09:59:51;;;;;;;10.82;3.53;;;13.90;76.70;;;;;;5095759;28;20032;-64
2021/04/22 10:02:17;;;;;;;13.57;3.53;;;14.50;67.30;;;;;;5097530;28;20047;-64
2021/04/22 10:04:45;;;;;;;11.68;4.50;;;14.60;64.30;;;;;;5096323;28;20039;-64
2021/04/22 10:07:28;;;;;;;13.07;3.78;;;15.20;65.20;;;;;;5095414;28;20035;-64
2021/04/22 10:09:57;;;;;;;13.70;3.80;;;14.90;58.40;;;;;;5095278;28;20032;-64
2021/04/22 10:12:27;;;;;;;11.13;3.28;;;15.40;60.60;;;;;;5096810;28;20028;-64
2021/04/22 10:14:54;;;;;;;13.82;3.58;;;16.60;56.40;;;;;;5096675;28;20020;-64
2021/04/22 10:17:24;;;;;;;13.43;3.85;;;16.40;54.20;;;;;;5097139;28;20016;-64
2021/04/22 10:20:11;;;;;;;8.85;3.45;;;16.40;54.00;;;;;;5096386;28;20158;-64
2021/04/22 10:22:41;;;;;;;12.02;3.40;;;16.70;51.80;;;;;;5095358;28;20119;-64
2021/04/22 10:25:09;;;;;;;15.55;3.78;;;16.10;54.00;;;;;;5096891;28;20104;-64
2021/04/22 10:27:35;;;;;;;15.48;4.07;;;15.10;59.80;;;;;;5096943;28;20020;-64
2021/04/22 10:30:03;;;;;;;13.27;4.05;;;14.40;62.90;;;;;;5094833;28;20393;-64
2021/04/22 10:32:29;;;;;;;17.13;4.00;;;13.90;69.50;;;;;;5096391;28;20020;-64
2021/04/22 10:34:55;;;;;;;9.43;3.42;;;14.60;78.40;;;;;;5095515;28;20042;-64
2021/04/22 10:37:23;;;;;;;11.95;3.58;;;14.80;59.80;;;;;;5093021;28;20028;-64
2021/04/22 10:39:50;;;;;;;11.32;4.38;;;14.50;61.60;;;;;;5096631;28;20020;-64
2021/04/22 10:42:16;;;;;;;14.43;4.22;;;14.30;63.50;;;;;;5096753;28;20081;-64
2021/04/22 10:44:42;;;;;;;12.73;4.55;;;13.40;73.30;;;;;;5096565;28;20024;-64
2021/04/22 10:47:08;;;;;;;15.52;4.43;;;13.80;77.50;;;;;;5096174;28;20503;-64
2021/04/22 10:49:34;;;;;;;16.88;4.10;;;14.50;72.20;;;;;;5095542;28;20046;-64
2021/04/22 10:52:02;;;;;;;11.65;4.55;;;15.40;66.40;;;;;;5094980;28;20034;-64
2021/04/22 10:54:28;;;;;;;13.85;4.55;;;14.30;69.20;;;;;;5095467;28;20022;-64
2021/04/22 10:57:03;;;;;;;14.15;4.45;;;13.10;82.00;;;;;;5095670;28;20016;-64
2021/04/22 10:59:29;;;;;;;11.73;4.25;;;13.30;83.20;;;;;;5095927;28;20458;-64
2021/04/22 11:01:54;;;;;;;14.27;4.68;;;12.90;86.00;;;;;;5096375;28;20095;-63
2021/04/22 11:04:20;;;;;;;12.88;4.60;;;12.50;86.70;;;;;;5095327;28;20457;-64
2021/04/22 11:06:45;;;;;;;15.02;4.90;;;12.80;89.80;;;;;;5094148;28;20384;-64
2021/04/22 11:09:20;;;;;;;14.25;5.25;;;13.50;82.60;;;;;;5095541;28;20040;-64
2021/04/22 11:12:03;;;;;;;9.07;4.55;;;13.30;78.30;;;;;;5093981;28;20077;-64
2021/04/22 11:14:35;;;;;;;11.18;4.93;;;13.90;77.10;;;;;;5095714;28;20425;-64
2021/04/22 11:17:02;;;;;;;21.77;5.67;;;13.60;73.00;;;;;;5095483;28;20016;-64
2021/04/22 11:19:34;;;;;;;15.45;4.78;;;13.90;75.60;;;;;;5095752;28;20054;-64
2021/04/22 11:22:25;;;;;;;15.82;5.50;;;13.90;77.50;;;;;;5096055;28;20064;-64
2021/04/22 11:24:57;;;;;;;18.02;5.20;;;13.10;82.60;;;;;;5074957;28;20028;-65
2021/04/22 11:27:24;;;;;;;15.30;5.47;;;13.00;85.80;;;;;;5090239;28;20039;-66
2021/04/22 11:37:54;;;;;;;14.13;5.28;;;12.50;90.60;;;;;;5111498;27;20396;-64
2021/04/22 11:40:23;;;;;;;16.58;5.28;;;13.60;85.70;;;;;;5111145;28;20093;-66
2021/04/22 11:42:51;;;;;;;16.55;5.20;;;13.60;75.10;;;;;;5098197;28;20108;-66
2021/04/22 11:45:22;;;;;;;12.60;5.25;;;13.80;73.80;;;;;;5099230;28;20015;-64
2021/04/22 11:47:57;;;;;;;15.05;5.22;;;13.70;72.00;;;;;;5111628;28;20039;-66
2021/04/22 11:50:29;;;;;;;14.70;5.40;;;13.70;71.50;;;;;;5089486;28;20385;-66
2021/04/22 11:52:58;;;;;;;16.50;5.57;;;13.60;74.20;;;;;;5070467;28;20033;-66
2021/04/22 11:55:27;;;;;;;15.73;5.60;;;13.10;85.10;;;;;;5070886;28;20032;-66
2021/04/22 11:57:56;;;;;;;19.13;5.18;;;13.30;77.30;;;;;;5070312;28;20021;-65
2021/04/22 12:00:26;;;;;;;14.38;4.50;;;12.80;81.90;;;;;;5069971;28;20107;-65
2021/04/22 12:02:52;;;;;;;17.38;5.40;;;13.50;83.70;;;;;;5098094;28;20478;-65
2021/04/22 12:05:19;;;;;;;14.50;5.53;;;13.80;80.40;;;;;;5110378;28;20058;-65
2021/04/22 12:07:54;;;;;;;13.55;5.28;;;14.00;77.80;;;;;;5110959;28;20027;-66
2021/04/22 12:10:19;;;;;;;15.32;5.68;;;13.30;81.40;;;;;;5110744;28;20026;-65
2021/04/22 12:12:47;;;;;;;13.80;5.32;;;12.80;82.30;;;;;;5110743;28;20103;-65
2021/04/22 12:15:12;;;;;;;16.77;5.47;;;12.60;75.60;;;;;;5109757;28;20085;-65
2021/04/22 12:17:38;;;;;;;17.88;5.32;;;13.20;79.60;;;;;;5110810;28;20418;-66
2021/04/22 12:20:08;;;;;;;15.70;5.40;;;13.30;71.30;;;;;;5111094;28;20530;-65
2021/04/22 12:22:40;;;;;;;11.68;5.80;;;13.50;75.70;;;;;;5104910;28;20400;-66
2021/04/22 12:25:12;;;;;;;12.48;5.47;;;13.30;79.30;;;;;;5090160;28;20074;-66
2021/04/22 12:27:45;;;;;;;14.50;5.38;;;14.10;74.30;;;;;;5090320;28;20028;-66
2021/04/22 12:30:40;;;;;;;9.25;5.15;;;14.30;75.20;;;;;;5090622;28;20042;-66
2021/04/22 12:33:11;;;;;;;15.18;5.47;;;14.70;71.70;;;;;;5089970;28;20024;-66
2021/04/22 12:35:39;;;;;;;12.80;5.72;;;14.80;68.90;;;;;;5089917;28;20017;-66
2021/04/22 12:38:24;;;;;;;15.68;5.72;;;14.60;67.10;;;;;;5090369;28;20123;-66
2021/04/22 12:40:57;;;;;;;11.63;5.47;;;15.00;65.90;;;;;;5090385;28;20524;-66
2021/04/22 12:43:26;;;;;;;14.73;5.78;;;15.40;66.30;;;;;;5090256;28;20369;-66
2021/04/22 12:45:53;;;;;;;11.18;5.32;;;15.00;62.50;;;;;;5088323;28;20029;-65
2021/04/22 12:48:18;;;;;;;16.00;6.20;;;14.30;65.60;;;;;;5081048;28;20020;-65
2021/04/22 12:50:47;;;;;;;16.20;5.80;;;14.40;74.30;;;;;;5076728;28;20032;-65